sensor_id;sensor_type;location;lat;lon;timestamp;pressure;altitude;pressure_sealevel;temperature;humidity
75891;BME280;64571;47.512;19.054;2022-10-23T00:00:26;100856.66;;;11.71;86.59
75891;BME280;64571;47.512;19.054;2022-10-23T00:03:29;100867.81;;;11.71;86.83
75891;BME280;64571;47.512;19.054;2022-10-23T00:06:32;100862.81;;;11.68;86.81
75891;BME280;64571;47.512;19.054;2022-10-23T00:09:35;100867.00;;;11.65;86.84
75891;BME280;64571;47.512;19.054;2022-10-23T00:12:38;100863.63;;;11.69;86.74
75891;BME280;64571;47.512;19.054;2022-10-23T00:15:40;100877.87;;;11.67;87.01
75891;BME280;64571;47.512;19.054;2022-10-23T00:18:43;100883.69;;;11.65;87.04
75891;BME280;64571;47.512;19.054;2022-10-23T00:21:47;100872.09;;;11.58;87.22
75891;BME280;64571;47.512;19.054;2022-10-23T00:24:49;100888.44;;;11.65;87.17
75891;BME280;64571;47.512;19.054;2022-10-23T00:27:52;100889.88;;;11.62;87.23
75891;BME280;64571;47.512;19.054;2022-10-23T00:30:54;100886.03;;;11.58;87.40
75891;BME280;64571;47.512;19.054;2022-10-23T00:33:57;100889.69;;;11.54;87.54
75891;BME280;64571;47.512;19.054;2022-10-23T00:37:00;100889.44;;;11.50;87.53
75891;BME280;64571;47.512;19.054;2022-10-23T00:40:03;100906.12;;;11.50;87.64
75891;BME280;64571;47.512;19.054;2022-10-23T00:43:06;100906.66;;;11.52;87.82
75891;BME280;64571;47.512;19.054;2022-10-23T00:46:15;100908.63;;;11.52;87.61
75891;BME280;64571;47.512;19.054;2022-10-23T00:49:17;100909.75;;;11.51;87.88
75891;BME280;64571;47.512;19.054;2022-10-23T00:52:21;100912.00;;;11.49;87.74
75891;BME280;64571;47.512;19.054;2022-10-23T00:55:24;100908.13;;;11.45;87.89
75891;BME280;64571;47.512;19.054;2022-10-23T00:58:28;100909.75;;;11.51;87.81
75891;BME280;64571;47.512;19.054;2022-10-23T01:01:30;100914.72;;;11.54;87.71
75891;BME280;64571;47.512;19.054;2022-10-23T01:04:33;100919.75;;;11.52;87.73
75891;BME280;64571;47.512;19.054;2022-10-23T01:07:53;100917.25;;;11.50;87.59
75891;BME280;64571;47.512;19.054;2022-10-23T01:11:04;100923.66;;;11.51;87.75
75891;BME280;64571;47.512;19.054;2022-10-23T01:14:32;100926.50;;;11.46;87.52
75891;BME280;64571;47.512;19.054;2022-10-23T01:18:26;100924.84;;;11.45;87.53
75891;BME280;64571;47.512;19.054;2022-10-23T01:21:11;100932.06;;;11.46;87.72
75891;BME280;64571;47.512;19.054;2022-10-23T01:24:42;100942.63;;;11.49;87.97
75891;BME280;64571;47.512;19.054;2022-10-23T01:27:53;100954.84;;;11.53;87.98
75891;BME280;64571;47.512;19.054;2022-10-23T01:30:59;100942.00;;;11.52;88.07
75891;BME280;64571;47.512;19.054;2022-10-23T01:34:29;100942.56;;;11.54;87.86
75891;BME280;64571;47.512;19.054;2022-10-23T01:37:46;100947.00;;;11.55;88.09
75891;BME280;64571;47.512;19.054;2022-10-23T01:41:04;100949.28;;;11.53;87.72
75891;BME280;64571;47.512;19.054;2022-10-23T01:47:24;100938.13;;;11.53;87.92
75891;BME280;64571;47.512;19.054;2022-10-23T01:50:29;100950.94;;;11.54;87.94
75891;BME280;64571;47.512;19.054;2022-10-23T01:53:36;100951.44;;;11.56;87.93
75891;BME280;64571;47.512;19.054;2022-10-23T01:56:45;100953.41;;;11.55;87.98
75891;BME280;64571;47.512;19.054;2022-10-23T01:59:52;100948.19;;;11.49;87.90
75891;BME280;64571;47.512;19.054;2022-10-23T02:02:57;100942.00;;;11.52;87.55
75891;BME280;64571;47.512;19.054;2022-10-23T02:06:00;100943.72;;;11.48;88.24
75891;BME280;64571;47.512;19.054;2022-10-23T02:09:05;100944.28;;;11.50;88.31
75891;BME280;64571;47.512;19.054;2022-10-23T02:12:21;100949.28;;;11.53;88.30
75891;BME280;64571;47.512;19.054;2022-10-23T02:15:45;100944.22;;;11.55;88.32
75891;BME280;64571;47.512;19.054;2022-10-23T02:22:12;100946.22;;;11.49;88.36
75891;BME280;64571;47.512;19.054;2022-10-23T02:25:19;100949.06;;;11.44;88.48
75891;BME280;64571;47.512;19.054;2022-10-23T02:28:31;100935.16;;;11.44;88.73
75891;BME280;64571;47.512;19.054;2022-10-23T02:31:36;100946.03;;;11.40;88.75
75891;BME280;64571;47.512;19.054;2022-10-23T02:34:38;100941.84;;;11.38;88.83
75891;BME280;64571;47.512;19.054;2022-10-23T02:37:51;100949.94;;;11.34;88.80
75891;BME280;64571;47.512;19.054;2022-10-23T02:41:23;100954.16;;;11.32;88.91
75891;BME280;64571;47.512;19.054;2022-10-23T02:48:17;100957.81;;;11.27;88.54
75891;BME280;64571;47.512;19.054;2022-10-23T02:51:35;100968.38;;;11.25;88.73
75891;BME280;64571;47.512;19.054;2022-10-23T02:58:08;100965.03;;;11.28;89.10
75891;BME280;64571;47.512;19.054;2022-10-23T03:01:17;100971.72;;;11.27;89.02
75891;BME280;64571;47.512;19.054;2022-10-23T03:04:23;100966.72;;;11.24;89.09
75891;BME280;64571;47.512;19.054;2022-10-23T03:07:27;100981.19;;;11.21;89.11
75891;BME280;64571;47.512;19.054;2022-10-23T03:10:35;100978.41;;;11.21;89.34
75891;BME280;64571;47.512;19.054;2022-10-23T03:13:39;100973.41;;;11.23;89.16
75891;BME280;64571;47.512;19.054;2022-10-23T03:16:42;100982.59;;;11.24;89.08
75891;BME280;64571;47.512;19.054;2022-10-23T03:19:44;100976.72;;;11.30;89.20
75891;BME280;64571;47.512;19.054;2022-10-23T03:22:48;100983.94;;;11.31;89.19
75891;BME280;64571;47.512;19.054;2022-10-23T03:25:51;100980.66;;;11.19;88.99
75891;BME280;64571;47.512;19.054;2022-10-23T03:28:58;100988.22;;;11.13;89.19
75891;BME280;64571;47.512;19.054;2022-10-23T03:32:01;100991.28;;;11.12;89.07
75891;BME280;64571;47.512;19.054;2022-10-23T03:35:04;100992.41;;;11.11;89.02
75891;BME280;64571;47.512;19.054;2022-10-23T03:38:06;100993.56;;;11.05;89.05
75891;BME280;64571;47.512;19.054;2022-10-23T03:41:09;100991.59;;;11.05;89.21
75891;BME280;64571;47.512;19.054;2022-10-23T03:44:12;100993.03;;;10.98;89.18
75891;BME280;64571;47.512;19.054;2022-10-23T03:47:18;100996.94;;;10.97;89.18
75891;BME280;64571;47.512;19.054;2022-10-23T03:50:20;101014.19;;;10.99;89.22
75891;BME280;64571;47.512;19.054;2022-10-23T03:53:23;101015.28;;;10.98;89.25
75891;BME280;64571;47.512;19.054;2022-10-23T03:56:25;101006.97;;;10.93;89.06
75891;BME280;64571;47.512;19.054;2022-10-23T03:59:28;101011.16;;;10.90;89.08
75891;BME280;64571;47.512;19.054;2022-10-23T04:02:32;101013.37;;;10.88;89.15
75891;BME280;64571;47.512;19.054;2022-10-23T04:05:35;101011.16;;;10.85;89.18
75891;BME280;64571;47.512;19.054;2022-10-23T04:08:37;101015.84;;;10.89;88.87
75891;BME280;64571;47.512;19.054;2022-10-23T04:11:42;101014.75;;;10.90;89.03
75891;BME280;64571;47.512;19.054;2022-10-23T04:14:44;101013.09;;;10.89;89.16
75891;BME280;64571;47.512;19.054;2022-10-23T04:17:47;101005.84;;;10.88;89.02
75891;BME280;64571;47.512;19.054;2022-10-23T04:20:49;101010.28;;;10.89;88.99
75891;BME280;64571;47.512;19.054;2022-10-23T04:23:52;101006.97;;;10.93;88.97
75891;BME280;64571;47.512;19.054;2022-10-23T04:26:56;100998.31;;;10.94;88.94
75891;BME280;64571;47.512;19.054;2022-10-23T04:30:01;100995.28;;;10.96;88.88
75891;BME280;64571;47.512;19.054;2022-10-23T04:33:04;100994.44;;;10.95;89.01
75891;BME280;64571;47.512;19.054;2022-10-23T04:36:08;101006.41;;;10.96;89.17
75891;BME280;64571;47.512;19.054;2022-10-23T04:39:10;100989.16;;;10.94;89.49
75891;BME280;64571;47.512;19.054;2022-10-23T04:42:14;100987.78;;;10.91;89.56
75891;BME280;64571;47.512;19.054;2022-10-23T04:45:16;100986.41;;;10.88;89.77
75891;BME280;64571;47.512;19.054;2022-10-23T04:48:19;100988.09;;;10.84;89.78
75891;BME280;64571;47.512;19.054;2022-10-23T04:51:26;100993.37;;;10.86;89.56
75891;BME280;64571;47.512;19.054;2022-10-23T04:54:37;100984.50;;;10.79;89.70
75891;BME280;64571;47.512;19.054;2022-10-23T04:57:39;101000.34;;;10.78;89.60
75891;BME280;64571;47.512;19.054;2022-10-23T05:00:43;101003.66;;;10.80;89.89
75891;BME280;64571;47.512;19.054;2022-10-23T05:03:49;101013.41;;;10.83;89.84
75891;BME280;64571;47.512;19.054;2022-10-23T05:06:52;101013.97;;;10.80;89.66
75891;BME280;64571;47.512;19.054;2022-10-23T05:09:55;101013.44;;;10.78;89.55
75891;BME280;64571;47.512;19.054;2022-10-23T05:12:58;101014.81;;;10.75;89.63
75891;BME280;64571;47.512;19.054;2022-10-23T05:16:00;101022.06;;;10.71;89.69
75891;BME280;64571;47.512;19.054;2022-10-23T05:19:04;101021.50;;;10.74;89.58
75891;BME280;64571;47.512;19.054;2022-10-23T05:22:09;101021.50;;;10.74;89.37
75891;BME280;64571;47.512;19.054;2022-10-23T05:25:16;101017.06;;;10.73;89.55
75891;BME280;64571;47.512;19.054;2022-10-23T05:28:19;101017.31;;;10.77;89.28
75891;BME280;64571;47.512;19.054;2022-10-23T05:31:23;101010.37;;;10.74;89.36
75891;BME280;64571;47.512;19.054;2022-10-23T05:34:30;101008.69;;;10.78;89.29
75891;BME280;64571;47.512;19.054;2022-10-23T05:37:37;101011.75;;;10.82;89.21
75891;BME280;64571;47.512;19.054;2022-10-23T05:40:41;101010.88;;;10.86;89.08
75891;BME280;64571;47.512;19.054;2022-10-23T05:43:47;101016.72;;;10.85;89.01
75891;BME280;64571;47.512;19.054;2022-10-23T05:46:51;101017.53;;;10.96;89.02
75891;BME280;64571;47.512;19.054;2022-10-23T05:49:53;101033.66;;;10.99;88.90
75891;BME280;64571;47.512;19.054;2022-10-23T05:52:56;101043.09;;;10.98;88.77
75891;BME280;64571;47.512;19.054;2022-10-23T05:56:04;101041.44;;;10.97;88.76
75891;BME280;64571;47.512;19.054;2022-10-23T05:59:09;101039.47;;;10.97;88.72
75891;BME280;64571;47.512;19.054;2022-10-23T06:02:13;101030.84;;;11.04;88.32
75891;BME280;64571;47.512;19.054;2022-10-23T06:05:16;101033.00;;;11.12;87.95
75891;BME280;64571;47.512;19.054;2022-10-23T06:08:19;101036.84;;;11.21;87.59
75891;BME280;64571;47.512;19.054;2022-10-23T06:11:22;101032.94;;;11.27;87.49
75891;BME280;64571;47.512;19.054;2022-10-23T06:14:25;101045.12;;;11.36;87.35
75891;BME280;64571;47.512;19.054;2022-10-23T06:17:28;101047.88;;;11.41;86.93
75891;BME280;64571;47.512;19.054;2022-10-23T06:20:34;101046.72;;;11.48;87.19
75891;BME280;64571;47.512;19.054;2022-10-23T06:23:38;101042.50;;;11.55;86.68
75891;BME280;64571;47.512;19.054;2022-10-23T06:26:41;101055.00;;;11.58;86.77
75891;BME280;64571;47.512;19.054;2022-10-23T06:29:44;101057.72;;;11.68;86.67
75891;BME280;64571;47.512;19.054;2022-10-23T06:32:46;101059.06;;;11.76;86.55
75891;BME280;64571;47.512;19.054;2022-10-23T06:35:49;101069.91;;;11.77;86.08
75891;BME280;64571;47.512;19.054;2022-10-23T06:38:52;101062.94;;;11.85;85.58
75891;BME280;64571;47.512;19.054;2022-10-23T06:41:55;101073.16;;;11.95;85.43
75891;BME280;64571;47.512;19.054;2022-10-23T06:45:07;101078.38;;;12.01;85.33
75891;BME280;64571;47.512;19.054;2022-10-23T06:48:12;101084.47;;;12.08;85.15
75891;BME280;64571;47.512;19.054;2022-10-23T06:51:16;101087.00;;;12.05;84.89
75891;BME280;64571;47.512;19.054;2022-10-23T06:54:19;101081.59;;;12.19;84.72
75891;BME280;64571;47.512;19.054;2022-10-23T06:57:25;101080.38;;;12.30;84.12
75891;BME280;64571;47.512;19.054;2022-10-23T07:00:27;101091.19;;;12.36;83.63
75891;BME280;64571;47.512;19.054;2022-10-23T07:03:31;101091.37;;;12.45;83.17
75891;BME280;64571;47.512;19.054;2022-10-23T07:06:35;101091.88;;;12.52;82.98
75891;BME280;64571;47.512;19.054;2022-10-23T07:09:38;101098.69;;;12.65;82.63
75891;BME280;64571;47.512;19.054;2022-10-23T07:12:44;101104.19;;;12.75;82.11
75891;BME280;64571;47.512;19.054;2022-10-23T07:15:53;101101.34;;;12.80;82.03
75891;BME280;64571;47.512;19.054;2022-10-23T07:18:58;101096.91;;;12.74;81.53
75891;BME280;64571;47.512;19.054;2022-10-23T07:22:04;101095.75;;;12.80;81.26
75891;BME280;64571;47.512;19.054;2022-10-23T07:25:07;101099.91;;;12.83;80.90
75891;BME280;64571;47.512;19.054;2022-10-23T07:28:10;101106.47;;;12.97;80.77
75891;BME280;64571;47.512;19.054;2022-10-23T07:31:13;101110.94;;;13.17;80.37
75891;BME280;64571;47.512;19.054;2022-10-23T07:34:16;101115.03;;;13.01;80.56
75891;BME280;64571;47.512;19.054;2022-10-23T07:37:19;101108.69;;;13.19;80.34
75891;BME280;64571;47.512;19.054;2022-10-23T07:40:22;101108.53;;;13.34;79.52
75891;BME280;64571;47.512;19.054;2022-10-23T07:43:25;101104.59;;;13.35;79.73
75891;BME280;64571;47.512;19.054;2022-10-23T07:46:28;101101.66;;;13.46;78.67
75891;BME280;64571;47.512;19.054;2022-10-23T07:49:30;101100.75;;;13.50;78.48
75891;BME280;64571;47.512;19.054;2022-10-23T07:52:34;101102.31;;;13.61;77.96
75891;BME280;64571;47.512;19.054;2022-10-23T07:55:39;101087.94;;;13.68;77.52
75891;BME280;64571;47.512;19.054;2022-10-23T07:58:42;101101.37;;;13.85;77.34
75891;BME280;64571;47.512;19.054;2022-10-23T08:01:45;101102.28;;;13.99;76.77
75891;BME280;64571;47.512;19.054;2022-10-23T08:04:54;101095.47;;;14.24;76.04
75891;BME280;64571;47.512;19.054;2022-10-23T08:07:57;101092.69;;;14.38;75.58
75891;BME280;64571;47.512;19.054;2022-10-23T08:10:59;101093.19;;;14.59;74.68
75891;BME280;64571;47.512;19.054;2022-10-23T08:14:03;101094.75;;;14.65;74.65
75891;BME280;64571;47.512;19.054;2022-10-23T08:17:07;101089.66;;;14.67;74.41
75891;BME280;64571;47.512;19.054;2022-10-23T08:20:17;101089.78;;;14.89;74.11
75891;BME280;64571;47.512;19.054;2022-10-23T08:23:19;101087.09;;;14.84;73.98
75891;BME280;64571;47.512;19.054;2022-10-23T08:26:23;101084.63;;;14.97;73.43
75891;BME280;64571;47.512;19.054;2022-10-23T08:29:26;101087.53;;;15.19;73.07
75891;BME280;64571;47.512;19.054;2022-10-23T08:32:29;101087.63;;;15.14;72.74
75891;BME280;64571;47.512;19.054;2022-10-23T08:35:38;101086.16;;;15.16;72.37
75891;BME280;64571;47.512;19.054;2022-10-23T08:38:40;101083.56;;;15.20;72.46
75891;BME280;64571;47.512;19.054;2022-10-23T08:41:49;101086.47;;;15.29;72.05
75891;BME280;64571;47.512;19.054;2022-10-23T08:45:05;101091.88;;;15.25;72.59
75891;BME280;64571;47.512;19.054;2022-10-23T08:48:17;101097.87;;;15.32;72.19
75891;BME280;64571;47.512;19.054;2022-10-23T08:51:36;101093.81;;;15.38;72.34
75891;BME280;64571;47.512;19.054;2022-10-23T08:55:04;101095.66;;;15.57;71.73
75891;BME280;64571;47.512;19.054;2022-10-23T08:58:24;101096.41;;;15.49;72.18
75891;BME280;64571;47.512;19.054;2022-10-23T09:04:40;101092.69;;;15.67;71.44
75891;BME280;64571;47.512;19.054;2022-10-23T09:15:02;101084.16;;;15.58;72.34
75891;BME280;64571;47.512;19.054;2022-10-23T09:18:15;101082.28;;;15.67;71.99
75891;BME280;64571;47.512;19.054;2022-10-23T09:21:17;101088.28;;;15.61;72.53
75891;BME280;64571;47.512;19.054;2022-10-23T09:24:22;101088.22;;;15.88;71.86
75891;BME280;64571;47.512;19.054;2022-10-23T09:27:25;101086.31;;;15.75;72.17
75891;BME280;64571;47.512;19.054;2022-10-23T09:30:36;101092.44;;;15.63;72.88
75891;BME280;64571;47.512;19.054;2022-10-23T09:33:40;101092.09;;;15.79;72.55
75891;BME280;64571;47.512;19.054;2022-10-23T09:36:49;101089.66;;;16.00;72.05
75891;BME280;64571;47.512;19.054;2022-10-23T09:40:17;101099.94;;;16.27;71.65
75891;BME280;64571;47.512;19.054;2022-10-23T09:43:20;101110.88;;;16.37;70.93
75891;BME280;64571;47.512;19.054;2022-10-23T09:46:48;101104.81;;;16.43;70.74
75891;BME280;64571;47.512;19.054;2022-10-23T09:49:54;101106.28;;;16.41;70.90
75891;BME280;64571;47.512;19.054;2022-10-23T09:52:57;101110.56;;;16.38;71.25
75891;BME280;64571;47.512;19.054;2022-10-23T09:56:02;101107.50;;;16.49;71.12
75891;BME280;64571;47.512;19.054;2022-10-23T10:02:27;101110.94;;;16.23;71.93
75891;BME280;64571;47.512;19.054;2022-10-23T10:05:34;101105.41;;;16.32;71.77
75891;BME280;64571;47.512;19.054;2022-10-23T10:08:51;101104.13;;;16.15;72.01
75891;BME280;64571;47.512;19.054;2022-10-23T10:11:58;101098.97;;;16.09;72.42
75891;BME280;64571;47.512;19.054;2022-10-23T10:15:15;101098.22;;;16.17;72.06
75891;BME280;64571;47.512;19.054;2022-10-23T10:29:01;101070.78;;;16.36;71.88
75891;BME280;64571;47.512;19.054;2022-10-23T10:32:19;101070.59;;;16.64;71.18
75891;BME280;64571;47.512;19.054;2022-10-23T10:38:50;101064.91;;;16.78;70.81
75891;BME280;64571;47.512;19.054;2022-10-23T10:45:31;101064.59;;;16.57;71.22
75891;BME280;64571;47.512;19.054;2022-10-23T10:55:45;101046.84;;;16.70;71.48
75891;BME280;64571;47.512;19.054;2022-10-23T10:59:27;101053.50;;;16.74;71.36
75891;BME280;64571;47.512;19.054;2022-10-23T11:02:41;101053.50;;;16.74;71.56
75891;BME280;64571;47.512;19.054;2022-10-23T11:05:46;101035.56;;;16.53;72.42
75891;BME280;64571;47.512;19.054;2022-10-23T11:08:53;101026.69;;;16.68;72.10
75891;BME280;64571;47.512;19.054;2022-10-23T11:12:18;101028.56;;;16.73;72.07
75891;BME280;64571;47.512;19.054;2022-10-23T11:15:26;101028.44;;;16.86;71.70
75891;BME280;64571;47.512;19.054;2022-10-23T11:18:31;101008.75;;;16.78;71.69
75891;BME280;64571;47.512;19.054;2022-10-23T11:22:01;101010.50;;;16.65;71.82
75891;BME280;64571;47.512;19.054;2022-10-23T11:28:57;101012.97;;;16.98;70.99
75891;BME280;64571;47.512;19.054;2022-10-23T11:38:29;101011.13;;;17.02;71.08
75891;BME280;64571;47.512;19.054;2022-10-23T11:41:33;101011.34;;;17.14;70.78
75891;BME280;64571;47.512;19.054;2022-10-23T11:44:42;101007.75;;;17.39;70.23
75891;BME280;64571;47.512;19.054;2022-10-23T11:47:56;100999.97;;;17.28;70.62
75891;BME280;64571;47.512;19.054;2022-10-23T11:51:02;101001.97;;;17.36;70.33
75891;BME280;64571;47.512;19.054;2022-10-23T11:57:18;101001.97;;;17.36;70.13
75891;BME280;64571;47.512;19.054;2022-10-23T12:00:21;101009.72;;;17.21;70.64
75891;BME280;64571;47.512;19.054;2022-10-23T12:03:38;101005.41;;;17.07;71.33
75891;BME280;64571;47.512;19.054;2022-10-23T12:06:47;100988.41;;;17.29;70.64
75891;BME280;64571;47.512;19.054;2022-10-23T12:10:03;100991.84;;;17.09;71.04
75891;BME280;64571;47.512;19.054;2022-10-23T12:16:38;100990.56;;;17.41;70.20
75891;BME280;64571;47.512;19.054;2022-10-23T12:19:46;100976.50;;;17.41;70.10
75891;BME280;64571;47.512;19.054;2022-10-23T12:22:52;100973.34;;;17.42;69.77
75891;BME280;64571;47.512;19.054;2022-10-23T12:29:44;100957.16;;;17.31;70.42
75891;BME280;64571;47.512;19.054;2022-10-23T12:36:31;100964.56;;;17.09;71.69
75891;BME280;64571;47.512;19.054;2022-10-23T12:39:38;100956.81;;;17.15;71.28
75891;BME280;64571;47.512;19.054;2022-10-23T12:42:49;100958.16;;;17.26;70.57
75891;BME280;64571;47.512;19.054;2022-10-23T12:45:54;100950.72;;;17.39;70.31
75891;BME280;64571;47.512;19.054;2022-10-23T12:48:59;100946.53;;;17.02;71.16
75891;BME280;64571;47.512;19.054;2022-10-23T12:52:05;100952.28;;;16.79;71.78
75891;BME280;64571;47.512;19.054;2022-10-23T12:55:12;100953.19;;;16.57;72.67
75891;BME280;64571;47.512;19.054;2022-10-23T12:58:23;100944.63;;;16.62;72.78
75891;BME280;64571;47.512;19.054;2022-10-23T13:01:32;100937.31;;;17.10;71.49
75891;BME280;64571;47.512;19.054;2022-10-23T13:04:35;100938.47;;;17.09;71.02
75891;BME280;64571;47.512;19.054;2022-10-23T13:07:42;100940.59;;;16.86;71.84
75891;BME280;64571;47.512;19.054;2022-10-23T13:10:47;100939.56;;;16.73;72.52
75891;BME280;64571;47.512;19.054;2022-10-23T13:13:52;100931.81;;;16.87;72.39
75891;BME280;64571;47.512;19.054;2022-10-23T13:16:59;100934.78;;;16.82;72.33
75891;BME280;64571;47.512;19.054;2022-10-23T13:20:29;100921.59;;;16.91;72.17
75891;BME280;64571;47.512;19.054;2022-10-23T13:23:33;100925.03;;;16.88;72.39
75891;BME280;64571;47.512;19.054;2022-10-23T13:26:38;100917.72;;;16.70;73.13
75891;BME280;64571;47.512;19.054;2022-10-23T13:29:46;100909.94;;;16.58;73.59
75891;BME280;64571;47.512;19.054;2022-10-23T13:32:48;100922.94;;;16.45;74.24
75891;BME280;64571;47.512;19.054;2022-10-23T13:36:20;100907.75;;;16.46;74.49
75891;BME280;64571;47.512;19.054;2022-10-23T13:39:32;100901.50;;;16.50;74.62
75891;BME280;64571;47.512;19.054;2022-10-23T13:42:35;100896.88;;;16.54;74.49
75891;BME280;64571;47.512;19.054;2022-10-23T13:45:39;100905.00;;;16.64;74.27
75891;BME280;64571;47.512;19.054;2022-10-23T13:48:42;100895.59;;;16.68;74.07
75891;BME280;64571;47.512;19.054;2022-10-23T13:51:51;100891.44;;;16.66;73.93
75891;BME280;64571;47.512;19.054;2022-10-23T13:54:54;100905.00;;;16.64;74.10
75891;BME280;64571;47.512;19.054;2022-10-23T13:57:57;100897.13;;;16.75;73.74
75891;BME280;64571;47.512;19.054;2022-10-23T14:00:59;100884.84;;;16.70;73.75
75891;BME280;64571;47.512;19.054;2022-10-23T14:04:03;100883.88;;;16.58;74.35
75891;BME280;64571;47.512;19.054;2022-10-23T14:07:06;100887.66;;;16.62;74.48
75891;BME280;64571;47.512;19.054;2022-10-23T14:10:08;100875.94;;;16.60;74.52
75891;BME280;64571;47.512;19.054;2022-10-23T14:13:11;100881.53;;;16.60;74.73
75891;BME280;64571;47.512;19.054;2022-10-23T14:16:16;100875.09;;;16.51;75.27
75891;BME280;64571;47.512;19.054;2022-10-23T14:19:18;100858.25;;;16.51;75.32
75891;BME280;64571;47.512;19.054;2022-10-23T14:22:21;100858.41;;;16.45;75.84
75891;BME280;64571;47.512;19.054;2022-10-23T14:25:23;100862.22;;;16.50;75.66
75891;BME280;64571;47.512;19.054;2022-10-23T14:28:26;100857.59;;;16.54;75.66
75891;BME280;64571;47.512;19.054;2022-10-23T14:31:28;100858.09;;;16.56;75.81
75891;BME280;64571;47.512;19.054;2022-10-23T14:34:31;100860.72;;;16.52;75.91
75891;BME280;64571;47.512;19.054;2022-10-23T14:37:33;100852.16;;;16.57;75.87
75891;BME280;64571;47.512;19.054;2022-10-23T14:40:37;100849.81;;;16.51;76.17
75891;BME280;64571;47.512;19.054;2022-10-23T14:43:40;100853.63;;;16.55;76.02
75891;BME280;64571;47.512;19.054;2022-10-23T14:46:44;100845.56;;;16.53;76.29
75891;BME280;64571;47.512;19.054;2022-10-23T14:49:49;100840.41;;;16.46;76.71
75891;BME280;64571;47.512;19.054;2022-10-23T14:52:53;100823.41;;;16.43;76.91
75891;BME280;64571;47.512;19.054;2022-10-23T14:56:03;100820.28;;;16.44;77.00
75891;BME280;64571;47.512;19.054;2022-10-23T14:59:06;100822.72;;;16.37;77.27
75891;BME280;64571;47.512;19.054;2022-10-23T15:02:10;100835.97;;;16.45;77.18
75891;BME280;64571;47.512;19.054;2022-10-23T15:05:13;100818.78;;;16.47;77.11
75891;BME280;64571;47.512;19.054;2022-10-23T15:08:15;100827.91;;;16.53;76.93
75891;BME280;64571;47.512;19.054;2022-10-23T15:11:18;100834.34;;;16.53;76.92
75891;BME280;64571;47.512;19.054;2022-10-23T15:14:20;100825.41;;;16.51;77.09
75891;BME280;64571;47.512;19.054;2022-10-23T15:17:23;100816.97;;;16.51;77.16
75891;BME280;64571;47.512;19.054;2022-10-23T15:20:25;100800.63;;;16.44;77.61
75891;BME280;64571;47.512;19.054;2022-10-23T15:23:27;100788.59;;;16.44;77.52
75891;BME280;64571;47.512;19.054;2022-10-23T15:26:30;100790.72;;;16.47;77.49
75891;BME280;64571;47.512;19.054;2022-10-23T15:29:33;100790.41;;;16.49;77.38
75891;BME280;64571;47.512;19.054;2022-10-23T15:32:35;100786.44;;;16.50;77.54
75891;BME280;64571;47.512;19.054;2022-10-23T15:35:38;100797.34;;;16.51;77.33
75891;BME280;64571;47.512;19.054;2022-10-23T15:38:40;100807.56;;;16.56;77.27
75891;BME280;64571;47.512;19.054;2022-10-23T15:41:43;100807.91;;;16.54;77.23
75891;BME280;64571;47.512;19.054;2022-10-23T15:44:46;100810.06;;;16.57;77.31
75891;BME280;64571;47.512;19.054;2022-10-23T15:47:51;100806.25;;;16.53;77.48
75891;BME280;64571;47.512;19.054;2022-10-23T15:50:54;100813.34;;;16.51;77.60
75891;BME280;64571;47.512;19.054;2022-10-23T15:53:56;100814.50;;;16.50;77.68
75891;BME280;64571;47.512;19.054;2022-10-23T15:56:59;100812.53;;;16.50;77.49
75891;BME280;64571;47.512;19.054;2022-10-23T16:00:04;100815.66;;;16.49;77.69
75891;BME280;64571;47.512;19.054;2022-10-23T16:03:09;100804.75;;;16.47;77.68
75891;BME280;64571;47.512;19.054;2022-10-23T16:06:14;100807.72;;;16.51;77.68
75891;BME280;64571;47.512;19.054;2022-10-23T16:09:16;100820.44;;;16.57;77.66
75891;BME280;64571;47.512;19.054;2022-10-23T16:12:19;100819.97;;;16.55;77.65
75891;BME280;64571;47.512;19.054;2022-10-23T16:15:21;100836.16;;;16.58;77.62
75891;BME280;64571;47.512;19.054;2022-10-23T16:18:24;100825.94;;;16.62;77.46
75891;BME280;64571;47.512;19.054;2022-10-23T16:21:29;100830.69;;;16.61;77.20
75891;BME280;64571;47.512;19.054;2022-10-23T16:24:32;100828.22;;;16.60;77.40
75891;BME280;64571;47.512;19.054;2022-10-23T16:27:35;100830.53;;;16.58;77.42
75891;BME280;64571;47.512;19.054;2022-10-23T16:30:42;100834.34;;;16.62;77.45
75891;BME280;64571;47.512;19.054;2022-10-23T16:33:44;100849.03;;;16.67;77.11
75891;BME280;64571;47.512;19.054;2022-10-23T16:36:48;100860.13;;;16.73;76.95
75891;BME280;64571;47.512;19.054;2022-10-23T16:39:51;100857.81;;;16.75;76.89
75891;BME280;64571;47.512;19.054;2022-10-23T16:42:58;100854.81;;;16.71;76.97
75891;BME280;64571;47.512;19.054;2022-10-23T16:49:03;100849.25;;;16.80;75.23
75891;BME280;64571;47.512;19.054;2022-10-23T16:52:07;100838.34;;;16.78;74.96
75891;BME280;64571;47.512;19.054;2022-10-23T16:55:09;100846.09;;;16.81;74.28
75891;BME280;64571;47.512;19.054;2022-10-23T16:58:12;100839.84;;;16.84;74.21
75891;BME280;64571;47.512;19.054;2022-10-23T17:01:17;100860.16;;;16.81;74.34
75891;BME280;64571;47.512;19.054;2022-10-23T17:04:20;100862.44;;;16.79;74.16
75891;BME280;64571;47.512;19.054;2022-10-23T17:07:23;100863.59;;;16.78;74.07
75891;BME280;64571;47.512;19.054;2022-10-23T17:10:25;100867.56;;;16.77;73.95
75891;BME280;64571;47.512;19.054;2022-10-23T17:13:28;100880.78;;;16.77;74.09
75891;BME280;64571;47.512;19.054;2022-10-23T17:16:44;100880.28;;;16.75;74.31
75891;BME280;64571;47.512;19.054;2022-10-23T17:19:46;100877.81;;;16.73;74.32